Monday, December 18, 2017, 5:50 AM EST
Back to Local

KHWV, Shirley Brookhaven Airport

Location: Shirley, NY, United States Lat: 40.817
Local Time: 5:50 AM EST (10:50 GMT) Lon: -72.867
Time Zone: US/Eastern Elev: 82 ft

Show me the last for .
Show Decoded

2017-12-18 04:56 METAR KHWV 180956Z AUTO 00000KT 10SM OVC046 01/M07 A3016 RMK AO2 SLP213
                 T00061067 =
2017-12-18 03:56 METAR KHWV 180856Z AUTO 00000KT 10SM FEW022 SCT048 OVC065 01/M07 A3018 RMK AO2
                 SLP220 T00061067 58009 =
2017-12-18 02:56 METAR KHWV 180756Z AUTO 00000KT 10SM SCT022 OVC110 01/M08 A3020 RMK AO2 SLP228
                 T00061078 =
2017-12-18 02:14 METAR KHWV 180714Z AUTO 00000KT 10SM BKN023 OVC110 00/M08 A3021 RMK AO2
                 T00001078 =
2017-12-18 01:56 METAR KHWV 180656Z AUTO 00000KT 10SM OVC110 00/M08 A3020 RMK AO2 SLP227
                 T00001078 =
2017-12-18 01:39 METAR KHWV 180639Z AUTO 00000KT 10SM SCT023 OVC110 00/M07 A3020 RMK AO2
                 T00001072 =
2017-12-18 00:56 METAR KHWV 180556Z AUTO 00000KT 10SM OVC022 00/M06 A3021 RMK AO2 SLP230
                 T00001061 10000 21011 56017 =
2017-12-18 00:18 METAR KHWV 180518Z AUTO 00000KT 10SM BKN021 00/M06 A3022 RMK AO2 T00001061 =
2017-12-17 23:56 METAR KHWV 180456Z AUTO 00000KT 10SM FEW120 00/M06 A3022 RMK AO2 SLP234
                 T00001061 400111028 =
2017-12-17 22:56 METAR KHWV 180356Z AUTO VRB03KT 10SM SCT021 OVC100 00/M05 A3024 RMK AO2 SLP240
                 T00001050 =
2017-12-17 22:20 METAR KHWV 180320Z AUTO 00000KT 10SM BKN022 OVC095 00/M04 A3025 RMK AO2
                 T00001044 =
2017-12-17 21:56 METAR KHWV 180256Z AUTO 00000KT 10SM FEW022 BKN110 00/M05 A3026 RMK AO2 SLP247
                 T00001050 58005 =
2017-12-17 21:48 METAR KHWV 180248Z AUTO 00000KT 10SM SCT022 BKN110 00/M05 A3026 RMK AO2
                 T00001050 =
2017-12-17 21:24 METAR KHWV 180224Z AUTO 00000KT 10SM BKN022 BKN120 00/M05 A3026 RMK AO2
                 T00001050 =
2017-12-17 20:56 METAR KHWV 180156Z AUTO 00000KT 10SM BKN110 00/M05 A3027 RMK AO2 SLP250
                 T00001050 =
2017-12-17 19:56 METAR KHWV 180056Z AUTO 00000KT 10SM BKN060 BKN120 M01/M04 A3028 RMK AO2 SLP255
                 T10061039 =
2017-12-17 18:56 METAR KHWV 172356Z AUTO 00000KT 10SM BKN060 M01/M04 A3027 RMK AO2 SLP252
                 T10061044 10011 21011 51006 =
2017-12-17 17:56 METAR KHWV 172256Z AUTO 00000KT 10SM CLR M01/M05 A3027 RMK AO2 SLP251 T10061050
                 =
2017-12-17 16:56 METAR KHWV 172156Z AUTO 00000KT 10SM CLR M01/M05 A3026 RMK AO2 SLP249 T10111050
                 =
2017-12-17 15:56 METAR KHWV 172056Z AUTO 33005KT 10SM CLR 01/M05 A3025 RMK AO2 SLP246 T00061050
                 55005 =
2017-12-17 14:56 METAR KHWV 171956Z AUTO 32006KT 10SM CLR 01/M06 A3025 RMK AO2 SLP245 T00061056 =
2017-12-17 13:56 METAR KHWV 171856Z AUTO 30007KT 10SM BKN044 OVC060 01/M06 A3025 RMK AO2 SLP244
                 T00061056 =
2017-12-17 12:56 METAR KHWV 171756Z AUTO 32007KT 10SM SCT043 OVC055 01/M06 A3027 RMK AO2 SLP251
                 T00061056 10006 21028 58014 =
2017-12-17 11:56 METAR KHWV 171656Z AUTO 34005KT 10SM OVC036 00/M06 A3029 RMK AO2 SLP257
                 T00001061 =
2017-12-17 10:56 METAR KHWV 171556Z AUTO 30005KT 10SM OVC032 00/M06 A3030 RMK AO2 SLP262
                 T00001061 =
2017-12-17 09:56 METAR KHWV 171456Z AUTO 35005KT 10SM OVC036 M01/M07 A3031 RMK AO2 SLP265
                 T10061067 51013 =
2017-12-17 08:56 METAR KHWV 171356Z AUTO 01003KT 10SM OVC039 M01/M07 A3030 RMK AO2 SLP262
                 T10111067 =
2017-12-17 07:56 METAR KHWV 171256Z AUTO 00000KT 10SM FEW044 M03/M08 A3030 RMK AO2 SLP261
                 T10281078 =
2017-12-17 06:56 METAR KHWV 171156Z AUTO 03003KT 10SM SCT034 BKN065 M02/M08 A3027 RMK AO2 SLP252
                 T10171078 11006 21022 51004 =
2017-12-17 05:56 METAR KHWV 171056Z AUTO 00000KT 10SM OVC050 M01/M07 A3027 RMK AO2 SLP250
                 T10111072 =

Support USWX by starting your Amazon purchase here.